Time;durP1;ratioP1;P1;durP2;ratioP2;P2;SDS_P1;SDS_P2;PMS_P1;PMS_P2;Temp;Humidity;BMP_temperature;BMP_pressure;BME280_temperature;BME280_humidity;BME280_pressure;Samples;Min_cycle;Max_cycle;Signal;HPM_P1;HPM_P2
2023/12/06 00:00:09;;;;;;;14.50;9.82;;;;;;;4.88;72.18;94255.84;4166770;28;20292;-67
2023/12/06 00:02:12;;;;;;;13.77;8.93;;;;;;;4.89;72.66;94249.72;4180169;28;20119;-69
2023/12/06 00:04:14;;;;;;;13.80;10.50;;;;;;;4.97;72.24;94254.22;4180614;28;20131;-70
2023/12/06 00:06:16;;;;;;;15.45;11.05;;;;;;;5.06;72.27;94245.63;4175179;28;20049;-68
2023/12/06 00:08:18;;;;;;;14.52;10.48;;;;;;;5.15;71.93;94250.00;4175498;28;20466;-69
2023/12/06 00:10:19;;;;;;;9.85;8.13;;;;;;;5.21;71.86;94249.44;4166041;28;20045;-66
2023/12/06 00:12:21;;;;;;;13.57;8.68;;;;;;;5.25;71.41;94245.63;4171191;28;20045;-68
2023/12/06 00:14:24;;;;;;;11.30;8.65;;;;;;;5.28;71.63;94247.13;4173802;28;20065;-67
2023/12/06 00:16:25;;;;;;;11.02;9.50;;;;;;;5.31;71.17;94249.41;4177659;28;20425;-69
2023/12/06 00:18:27;;;;;;;12.40;10.63;;;;;;;5.35;70.86;94253.38;4167325;28;20490;-68
2023/12/06 00:20:30;;;;;;;10.38;8.77;;;;;;;5.37;71.18;94250.66;4175397;28;20051;-67
2023/12/06 00:22:31;;;;;;;12.93;9.70;;;;;;;5.37;70.49;94246.28;4169886;28;20050;-67
2023/12/06 00:24:34;;;;;;;11.85;8.38;;;;;;;5.40;71.00;94240.81;4175703;28;20515;-69
2023/12/06 00:26:39;;;;;;;10.07;8.65;;;;;;;5.45;70.68;94243.00;4174050;28;20131;-68
2023/12/06 00:28:41;;;;;;;12.80;10.50;;;;;;;5.51;70.79;94239.84;4173717;28;20055;-68
2023/12/06 00:30:43;;;;;;;11.40;9.25;;;;;;;5.52;70.31;94237.09;4179355;28;20132;-66
2023/12/06 00:32:45;;;;;;;11.65;9.38;;;;;;;5.51;70.78;94239.84;4177530;28;20126;-68
2023/12/06 00:34:48;;;;;;;10.45;8.35;;;;;;;5.53;70.71;94232.75;4180510;28;20419;-68
2023/12/06 00:36:50;;;;;;;13.10;8.98;;;;;;;5.61;70.71;94232.03;4178104;28;20131;-68
2023/12/06 00:38:52;;;;;;;11.32;8.15;;;;;;;5.60;70.09;94226.00;4176288;28;20045;-69
2023/12/06 00:40:54;;;;;;;10.82;8.18;;;;;;;5.66;70.08;94232.44;4167134;28;20041;-68
2023/12/06 00:42:56;;;;;;;12.38;8.40;;;;;;;5.63;70.17;94220.53;4164449;28;20056;-66
2023/12/06 00:44:58;;;;;;;11.20;8.18;;;;;;;5.68;69.88;94227.91;4176669;28;20447;-67
2023/12/06 00:47:00;;;;;;;9.52;7.82;;;;;;;5.64;70.20;94226.56;4179877;28;20055;-68
2023/12/06 00:49:03;;;;;;;10.30;7.93;;;;;;;5.60;69.82;94228.59;4171169;28;20045;-69
2023/12/06 00:51:05;;;;;;;11.88;7.80;;;;;;;5.56;69.88;94229.03;4167613;28;20056;-68
2023/12/06 00:53:07;;;;;;;13.77;10.00;;;;;;;5.57;70.41;94215.06;4169978;28;20081;-66
2023/12/06 00:55:09;;;;;;;21.00;12.75;;;;;;;5.53;70.00;94219.75;4175813;28;20567;-68
2023/12/06 00:57:11;;;;;;;24.58;15.85;;;;;;;5.53;69.85;94217.97;4176001;28;20469;-66
2023/12/06 00:59:13;;;;;;;22.85;17.52;;;;;;;5.56;69.67;94214.25;4174127;28;20118;-67
2023/12/06 01:01:15;;;;;;;22.02;16.60;;;;;;;5.59;69.54;94215.75;4188805;28;20045;-67
2023/12/06 01:03:17;;;;;;;20.42;15.52;;;;;;;5.62;70.14;94216.28;4179684;28;20082;-66
2023/12/06 01:05:19;;;;;;;24.38;17.52;;;;;;;5.67;69.74;94208.06;4172564;28;20049;-68
2023/12/06 01:07:21;;;;;;;22.02;16.48;;;;;;;5.62;69.77;94207.69;4175119;28;20049;-69
2023/12/06 01:09:24;;;;;;;23.85;16.65;;;;;;;5.65;69.24;94210.00;4176847;28;20053;-68
2023/12/06 01:11:26;;;;;;;23.45;17.35;;;;;;;5.62;69.65;94215.50;4172132;28;20071;-68
2023/12/06 01:13:28;;;;;;;20.20;16.67;;;;;;;5.59;69.77;94208.75;4179695;28;20085;-68
2023/12/06 01:15:30;;;;;;;24.40;17.27;;;;;;;5.62;69.33;94211.09;4178887;28;20539;-68
2023/12/06 01:17:32;;;;;;;27.33;17.70;;;;;;;5.63;70.03;94207.53;4171841;28;20155;-69
2023/12/06 01:19:34;;;;;;;22.45;17.30;;;;;;;5.57;69.95;94204.69;4188903;28;20049;-69
2023/12/06 01:21:36;;;;;;;24.98;17.83;;;;;;;5.61;69.58;94198.25;4187336;28;20490;-69
2023/12/06 01:23:38;;;;;;;24.38;16.17;;;;;;;5.62;70.05;94194.69;4176265;28;20068;-66
2023/12/06 01:25:40;;;;;;;22.23;16.88;;;;;;;5.54;69.44;94183.22;4177832;28;20049;-68
2023/12/06 01:27:42;;;;;;;24.65;16.83;;;;;;;5.56;69.93;94190.88;4171211;28;20045;-67
2023/12/06 01:29:44;;;;;;;24.92;17.73;;;;;;;5.53;70.10;94180.78;4171746;28;20096;-66
2023/12/06 01:31:49;;;;;;;23.58;17.77;;;;;;;5.53;69.81;94183.38;4178026;28;20463;-68
2023/12/06 01:33:51;;;;;;;21.63;16.98;;;;;;;5.49;70.03;94180.22;4168504;28;20048;-68
2023/12/06 01:35:53;;;;;;;22.38;16.70;;;;;;;5.50;70.09;94171.47;4166929;28;20127;-67
2023/12/06 01:37:56;;;;;;;21.75;15.57;;;;;;;5.52;69.82;94176.53;4178419;28;20049;-70
2023/12/06 01:39:58;;;;;;;25.38;17.83;;;;;;;5.50;70.13;94175.84;4177384;28;20052;-69
2023/12/06 01:42:00;;;;;;;19.40;13.48;;;;;;;5.46;70.37;94170.13;4174205;28;20059;-70
2023/12/06 01:44:02;;;;;;;17.55;12.65;;;;;;;5.47;70.06;94169.16;4170127;28;20523;-66
2023/12/06 01:46:04;;;;;;;18.92;13.98;;;;;;;5.45;70.00;94162.47;4170210;28;20051;-71
2023/12/06 01:48:07;;;;;;;11.48;9.38;;;;;;;5.41;70.07;94155.91;4174087;28;20539;-67
2023/12/06 01:50:09;;;;;;;14.27;10.10;;;;;;;5.37;69.83;94155.38;4178956;28;20114;-67
2023/12/06 01:52:11;;;;;;;13.63;9.68;;;;;;;5.40;70.03;94160.28;4177100;28;20048;-69
2023/12/06 01:54:13;;;;;;;10.15;7.18;;;;;;;5.38;69.94;94158.78;4178837;28;20049;-66
2023/12/06 01:56:16;;;;;;;9.80;7.10;;;;;;;5.33;70.06;94149.66;4178041;28;20053;-69
2023/12/06 01:58:18;;;;;;;8.05;6.85;;;;;;;5.36;70.09;94145.94;4178126;28;20111;-67
2023/12/06 02:00:20;;;;;;;7.22;5.95;;;;;;;5.42;70.06;94147.16;4192404;28;20505;-67
2023/12/06 02:02:23;;;;;;;6.53;5.15;;;;;;;5.45;70.31;94137.31;4166132;28;20107;-69
2023/12/06 02:04:25;;;;;;;7.38;5.53;;;;;;;5.43;69.97;94139.22;4146649;28;20556;-69
2023/12/06 02:06:27;;;;;;;7.63;5.25;;;;;;;5.43;70.00;94141.81;4174062;28;20057;-68
2023/12/06 02:08:35;;;;;;;6.80;4.80;;;;;;;5.44;69.77;94140.03;4168287;28;20072;-68
2023/12/06 02:10:36;;;;;;;6.82;5.05;;;;;;;5.39;69.88;94142.25;4176659;28;20489;-69
2023/12/06 02:12:38;;;;;;;7.15;5.03;;;;;;;5.43;70.04;94138.41;4176206;28;20067;-66
2023/12/06 02:14:40;;;;;;;6.25;5.10;;;;;;;5.44;70.01;94140.03;4175527;28;20444;-71
2023/12/06 02:16:43;;;;;;;5.30;4.53;;;;;;;5.43;69.59;94138.41;4178764;28;20424;-68
2023/12/06 02:18:45;;;;;;;6.90;5.00;;;;;;;5.45;69.71;94133.91;4175342;28;20559;-67
2023/12/06 02:20:48;;;;;;;7.10;5.15;;;;;;;5.45;69.55;94131.28;4167106;28;20132;-68
2023/12/06 02:22:50;;;;;;;6.97;4.82;;;;;;;5.43;69.84;94130.63;4169524;28;20049;-67
2023/12/06 02:24:54;;;;;;;6.50;4.70;;;;;;;5.39;69.98;94140.47;4175189;28;20399;-69
2023/12/06 02:26:57;;;;;;;5.63;4.55;;;;;;;5.37;69.94;94133.78;4189660;28;20060;-69
2023/12/06 02:28:59;;;;;;;7.67;5.00;;;;;;;5.36;70.30;94130.38;4178149;28;20060;-66
2023/12/06 02:31:02;;;;;;;5.50;4.43;;;;;;;5.34;70.15;94132.28;4178166;28;20053;-68
2023/12/06 02:33:04;;;;;;;5.65;4.30;;;;;;;5.29;70.31;94129.28;4176624;28;20095;-68
2023/12/06 02:35:38;;;;;;;6.10;4.63;;;;;;;5.35;70.16;94136.50;4177034;28;20049;-67
2023/12/06 02:37:41;;;;;;;6.50;4.70;;;;;;;5.33;70.43;94131.47;4173509;28;20412;-69
2023/12/06 02:39:43;;;;;;;5.93;4.28;;;;;;;5.25;70.67;94126.16;4171761;28;20045;-68
2023/12/06 02:41:46;;;;;;;5.13;4.18;;;;;;;5.26;70.51;94127.78;4160786;28;20081;-70
2023/12/06 02:43:48;;;;;;;6.63;4.95;;;;;;;5.23;71.04;94128.06;4175302;28;20057;-68
2023/12/06 02:45:50;;;;;;;5.57;4.45;;;;;;;5.22;70.79;94117.81;4176779;28;20372;-67
2023/12/06 02:47:52;;;;;;;6.93;5.50;;;;;;;5.18;71.12;94113.88;4177731;28;20325;-69
2023/12/06 02:49:54;;;;;;;6.40;5.00;;;;;;;5.20;71.10;94119.75;4177361;28;20048;-68
2023/12/06 02:51:56;;;;;;;6.10;5.00;;;;;;;5.17;71.16;94113.06;4178688;28;20103;-68
2023/12/06 02:53:58;;;;;;;5.90;4.85;;;;;;;5.17;71.24;94105.25;4177234;28;20052;-68
2023/12/06 02:56:00;;;;;;;5.13;4.30;;;;;;;5.07;71.37;94107.06;4169465;28;20147;-66
2023/12/06 02:58:02;;;;;;;6.40;5.32;;;;;;;5.09;71.35;94100.75;4178944;28;20106;-68
2023/12/06 03:00:05;;;;;;;5.82;5.05;;;;;;;5.05;71.58;94108.97;4174833;28;20048;-68
2023/12/06 03:02:07;;;;;;;6.53;4.57;;;;;;;4.97;71.83;94103.66;4182481;28;20385;-69
2023/12/06 03:04:09;;;;;;;4.78;4.07;;;;;;;5.03;72.31;94106.50;4176300;28;20053;-68
2023/12/06 03:06:11;;;;;;;6.95;4.75;;;;;;;5.07;71.40;94101.88;4176552;28;20053;-67
2023/12/06 03:08:14;;;;;;;5.65;4.68;;;;;;;5.18;71.44;94095.69;4178629;28;20052;-69
2023/12/06 03:10:16;;;;;;;6.37;4.37;;;;;;;5.24;71.11;94092.53;4192155;28;20131;-67
2023/12/06 03:12:18;;;;;;;6.47;4.45;;;;;;;5.25;70.70;94095.00;4170644;28;20282;-67
2023/12/06 03:14:20;;;;;;;6.20;4.97;;;;;;;5.31;70.93;94081.44;4178047;28;20103;-67
2023/12/06 03:16:22;;;;;;;5.53;4.45;;;;;;;5.25;70.39;94094.19;4174726;28;20053;-71
2023/12/06 03:18:24;;;;;;;7.00;4.43;;;;;;;5.20;71.47;94096.38;4176905;28;20056;-68
2023/12/06 03:20:27;;;;;;;6.22;4.55;;;;;;;5.17;71.24;94081.88;4172782;28;20045;-68
2023/12/06 03:22:30;;;;;;;5.90;4.32;;;;;;;5.11;71.69;94088.47;4169680;28;20056;-69
2023/12/06 03:24:31;;;;;;;6.03;4.40;;;;;;;5.04;71.45;94081.38;4177752;28;20048;-68
2023/12/06 03:26:33;;;;;;;4.90;4.25;;;;;;;4.91;71.82;94077.31;4175400;28;20150;-69
2023/12/06 03:28:36;;;;;;;5.57;4.57;;;;;;;4.99;72.15;94075.78;4172521;28;20520;-68
2023/12/06 03:30:38;;;;;;;6.60;4.57;;;;;;;5.07;72.11;94083.69;4169211;28;20052;-70
2023/12/06 03:32:39;;;;;;;6.25;4.60;;;;;;;5.06;71.42;94069.91;4167258;28;20049;-67
2023/12/06 03:34:41;;;;;;;6.05;4.70;;;;;;;5.08;72.34;94069.75;4164513;28;20128;-67
2023/12/06 03:36:43;;;;;;;5.68;4.32;;;;;;;5.06;72.34;94079.47;4174449;28;20045;-69
2023/12/06 03:38:45;;;;;;;5.03;4.22;;;;;;;5.01;72.04;94076.47;4176727;28;20045;-67
2023/12/06 03:40:47;;;;;;;5.38;4.57;;;;;;;5.00;72.08;94082.63;4173268;28;20052;-67
2023/12/06 03:42:49;;;;;;;5.57;4.03;;;;;;;5.00;72.06;94077.44;4169501;28;20052;-68
2023/12/06 03:44:51;;;;;;;4.65;3.97;;;;;;;5.02;72.17;94083.31;4174076;28;20580;-68
2023/12/06 03:46:53;;;;;;;5.60;4.20;;;;;;;5.05;72.22;94085.59;4176517;28;20041;-69
2023/12/06 03:48:55;;;;;;;5.10;4.35;;;;;;;5.05;72.02;94080.41;4173403;28;20091;-68
2023/12/06 03:50:57;;;;;;;5.45;4.72;;;;;;;5.17;72.23;94089.69;4174980;28;20126;-69
2023/12/06 03:52:59;;;;;;;5.15;4.40;;;;;;;5.01;71.96;94081.66;4174906;28;20160;-69
2023/12/06 03:55:02;;;;;;;5.13;4.53;;;;;;;4.99;72.64;94078.38;4175619;28;20404;-69
2023/12/06 03:57:04;;;;;;;5.50;4.57;;;;;;;5.08;72.43;94086.16;4171892;28;20049;-69
2023/12/06 03:59:06;;;;;;;5.25;4.30;;;;;;;5.13;72.08;94080.53;4172391;28;20053;-68
2023/12/06 04:01:08;;;;;;;5.15;4.32;;;;;;;5.06;71.99;94074.28;4170593;28;20088;-68
2023/12/06 04:03:12;;;;;;;6.05;4.70;;;;;;;5.17;71.91;94079.28;4172540;28;20134;-69
2023/12/06 04:05:15;;;;;;;4.95;4.35;;;;;;;5.10;72.22;94081.63;4176747;28;20479;-68
2023/12/06 04:07:17;;;;;;;5.82;4.40;;;;;;;5.11;72.09;94072.06;4174927;28;20061;-67
2023/12/06 04:09:19;;;;;;;5.10;4.30;;;;;;;5.13;71.98;94064.97;4177331;28;20045;-68
2023/12/06 04:11:21;;;;;;;5.93;4.45;;;;;;;5.17;71.58;94071.50;4180139;28;20053;-68
2023/12/06 04:13:23;;;;;;;5.82;4.22;;;;;;;5.25;71.92;94069.03;4179840;28;20317;-68
2023/12/06 04:15:25;;;;;;;5.28;4.10;;;;;;;5.24;71.33;94077.75;4177742;28;20288;-68
2023/12/06 04:17:27;;;;;;;5.70;4.53;;;;;;;5.28;71.67;94078.31;4179124;28;20048;-69
2023/12/06 04:19:29;;;;;;;5.13;4.07;;;;;;;5.36;71.27;94069.81;4179018;28;20325;-68
2023/12/06 04:21:31;;;;;;;5.00;4.50;;;;;;;5.38;71.22;94065.25;4177008;28;20167;-67
2023/12/06 04:23:32;;;;;;;5.00;4.40;;;;;;;5.39;71.46;94075.53;4178175;28;20038;-69
2023/12/06 04:25:35;;;;;;;5.78;4.50;;;;;;;5.45;71.02;94069.75;4178596;28;20044;-70
2023/12/06 04:27:36;;;;;;;5.63;4.57;;;;;;;5.37;71.15;94061.84;4178804;28;20400;-66
2023/12/06 04:29:38;;;;;;;6.00;4.18;;;;;;;5.35;71.48;94074.16;4179875;28;20056;-67
2023/12/06 04:31:40;;;;;;;5.13;4.50;;;;;;;5.36;71.79;94073.22;4168248;28;20087;-67
2023/12/06 04:33:42;;;;;;;7.72;4.22;;;;;;;5.33;71.79;94076.09;4179195;28;20041;-69
2023/12/06 04:35:44;;;;;;;6.65;4.60;;;;;;;5.30;71.53;94071.19;4178301;28;20095;-69
2023/12/06 04:37:46;;;;;;;6.00;4.55;;;;;;;5.26;72.37;94078.44;4179043;28;20044;-71
2023/12/06 04:39:48;;;;;;;5.60;4.40;;;;;;;5.12;72.95;94069.34;4175300;28;20456;-69
2023/12/06 04:41:50;;;;;;;5.70;5.10;;;;;;;5.15;72.80;94078.63;4175939;28;20083;-68
2023/12/06 04:43:52;;;;;;;6.53;4.85;;;;;;;5.10;73.14;94078.22;4176237;28;20084;-69
2023/12/06 04:45:54;;;;;;;7.15;4.88;;;;;;;5.15;73.06;94076.03;4177343;28;20747;-69
2023/12/06 04:47:56;;;;;;;6.30;4.80;;;;;;;5.27;73.70;94074.06;4176211;28;20136;-68
2023/12/06 04:49:58;;;;;;;6.65;4.68;;;;;;;5.36;72.95;94077.59;4180173;28;20056;-69
2023/12/06 04:52:01;;;;;;;6.50;5.30;;;;;;;5.30;72.97;94082.38;4176517;28;20128;-70
2023/12/06 04:54:03;;;;;;;6.53;4.90;;;;;;;5.24;73.33;94069.97;4174673;28;20123;-69
2023/12/06 04:56:06;;;;;;;5.95;5.15;;;;;;;5.19;72.95;94077.38;4180736;28;20503;-67
2023/12/06 04:58:08;;;;;;;6.38;5.20;;;;;;;5.16;73.35;94071.63;4177021;28;20049;-68
2023/12/06 05:00:11;;;;;;;6.00;5.18;;;;;;;5.16;73.90;94069.84;4179639;28;20150;-70
2023/12/06 05:02:12;;;;;;;18.33;5.30;;;;;;;5.09;74.27;94068.78;4177015;28;20132;-70
2023/12/06 05:04:15;;;;;;;8.10;5.88;;;;;;;5.15;74.16;94070.81;4178278;28;20049;-70
2023/12/06 05:06:17;;;;;;;7.07;5.90;;;;;;;5.11;73.88;94069.47;4179029;28;20049;-68
2023/12/06 05:08:18;;;;;;;7.13;5.25;;;;;;;5.11;74.16;94066.88;4178926;28;20091;-71
2023/12/06 05:10:20;;;;;;;8.20;5.90;;;;;;;5.19;74.48;94067.00;4179037;28;20084;-69
2023/12/06 05:12:22;;;;;;;8.15;5.70;;;;;;;5.25;74.39;94073.41;4165464;28;20088;-70
2023/12/06 05:14:25;;;;;;;7.32;5.75;;;;;;;5.33;74.41;94071.72;4164295;28;20191;-71
2023/12/06 05:16:27;;;;;;;7.65;5.20;;;;;;;5.31;74.53;94073.66;4175638;28;20056;-69
2023/12/06 05:18:30;;;;;;;10.38;5.57;;;;;;;5.33;74.69;94070.91;4177006;28;20468;-69
2023/12/06 05:20:32;;;;;;;6.75;5.32;;;;;;;5.22;74.60;94071.88;4175671;28;20126;-69
2023/12/06 05:22:35;;;;;;;8.13;5.65;;;;;;;5.26;75.32;94069.84;4170471;28;20045;-69
2023/12/06 05:24:36;;;;;;;7.40;5.60;;;;;;;5.31;75.01;94070.22;4178173;28;20053;-70
2023/12/06 05:26:39;;;;;;;8.32;5.60;;;;;;;5.25;74.94;94063.03;4175819;28;20513;-70
2023/12/06 05:28:40;;;;;;;8.48;5.72;;;;;;;5.28;75.77;94062.72;4174264;28;20048;-69
2023/12/06 05:30:42;;;;;;;9.15;6.30;;;;;;;5.14;75.77;94074.38;4171823;28;20049;-70
2023/12/06 05:32:44;;;;;;;7.07;5.60;;;;;;;5.21;76.12;94067.66;4165915;28;20069;-70
2023/12/06 05:34:46;;;;;;;7.88;6.10;;;;;;;5.31;76.15;94071.06;4177095;28;20055;-68
2023/12/06 05:36:48;;;;;;;7.82;5.90;;;;;;;5.41;75.85;94072.78;4179937;28;20409;-69
2023/12/06 05:38:50;;;;;;;7.90;6.10;;;;;;;5.49;75.42;94072.91;4179205;28;20141;-69
2023/12/06 05:40:55;;;;;;;6.53;5.35;;;;;;;5.55;75.39;94067.13;4179200;28;20045;-71
2023/12/06 05:42:57;;;;;;;6.45;5.10;;;;;;;5.60;74.83;94066.69;4174534;28;20053;-70
2023/12/06 05:44:59;;;;;;;10.32;5.93;;;;;;;5.63;75.00;94062.00;4176600;28;20045;-70
2023/12/06 05:47:01;;;;;;;9.13;5.68;;;;;;;5.64;75.05;94060.25;4176434;28;20044;-69
2023/12/06 05:49:03;;;;;;;7.80;5.97;;;;;;;5.69;74.89;94066.63;4175229;28;20053;-71
2023/12/06 05:51:05;;;;;;;7.38;5.45;;;;;;;5.73;74.92;94062.78;4177440;28;20127;-70
2023/12/06 05:53:07;;;;;;;8.40;5.85;;;;;;;5.78;74.23;94072.75;4178953;28;20084;-69
2023/12/06 05:55:08;;;;;;;7.60;5.85;;;;;;;5.79;74.42;94063.19;4179412;28;20059;-70
2023/12/06 05:57:10;;;;;;;9.57;5.82;;;;;;;5.79;74.40;94066.59;4176507;28;20056;-69
2023/12/06 05:59:12;;;;;;;7.65;5.55;;;;;;;5.81;74.46;94064.66;4179415;28;20132;-70
2023/12/06 06:01:15;;;;;;;8.13;6.22;;;;;;;5.79;74.61;94061.41;4179444;28;20061;-70
2023/12/06 06:03:17;;;;;;;8.40;5.53;;;;;;;5.82;74.47;94062.88;4175923;28;20137;-69
2023/12/06 06:05:19;;;;;;;13.02;6.43;;;;;;;5.83;74.48;94067.94;4176788;28;20139;-69
2023/12/06 06:07:21;;;;;;;7.53;5.82;;;;;;;5.83;74.68;94067.94;4177281;28;20060;-71
2023/12/06 06:09:24;;;;;;;8.32;6.68;;;;;;;5.85;75.18;94072.97;4167317;28;20045;-71
2023/12/06 06:11:26;;;;;;;9.25;6.90;;;;;;;5.91;74.85;94075.81;4178818;28;20467;-69
2023/12/06 06:13:29;;;;;;;10.30;5.97;;;;;;;5.88;74.97;94072.69;4167826;28;20081;-69
2023/12/06 06:15:31;;;;;;;9.85;6.40;;;;;;;5.89;74.61;94067.38;4164570;28;20103;-70
2023/12/06 06:17:32;;;;;;;8.00;5.78;;;;;;;5.93;75.16;94075.66;4180508;28;20459;-68
2023/12/06 06:19:35;;;;;;;10.43;6.68;;;;;;;5.89;75.06;94071.72;4173539;28;20057;-71
2023/12/06 06:21:37;;;;;;;7.32;5.70;;;;;;;5.83;75.04;94080.09;4179104;28;20053;-70
2023/12/06 06:23:39;;;;;;;10.45;6.82;;;;;;;5.84;75.78;94079.16;4170085;28;20523;-71
2023/12/06 06:25:40;;;;;;;8.65;6.68;;;;;;;5.84;75.97;94079.16;4170796;28;20064;-70
2023/12/06 06:27:42;;;;;;;9.43;7.22;;;;;;;5.87;75.49;94087.50;4174393;28;20087;-69
2023/12/06 06:29:44;;;;;;;11.48;7.38;;;;;;;5.83;75.71;94085.28;4178890;28;20049;-69
2023/12/06 06:31:46;;;;;;;8.48;6.50;;;;;;;5.82;76.23;94083.69;4170556;28;20491;-69
2023/12/06 06:33:48;;;;;;;10.02;7.22;;;;;;;5.85;76.48;94075.56;4176651;28;20643;-70
2023/12/06 06:35:50;;;;;;;11.02;7.78;;;;;;;5.82;76.02;94086.28;4174666;28;20074;-71
2023/12/06 06:37:52;;;;;;;11.10;7.13;;;;;;;5.78;76.46;94080.53;4176430;28;20056;-71
2023/12/06 06:39:54;;;;;;;13.18;8.73;;;;;;;5.80;76.51;94077.81;4179330;28;20053;-71
2023/12/06 06:41:56;;;;;;;11.40;8.00;;;;;;;5.81;77.03;94074.22;4173700;28;20542;-70
2023/12/06 06:43:58;;;;;;;11.57;7.38;;;;;;;5.87;76.77;94078.84;4161109;28;20057;-70
2023/12/06 06:46:01;;;;;;;13.00;9.93;;;;;;;5.88;76.46;94076.09;4172443;28;20519;-70
2023/12/06 06:48:03;;;;;;;12.02;7.95;;;;;;;5.80;76.54;94083.81;4188064;28;20404;-72
2023/12/06 06:50:06;;;;;;;14.40;10.10;;;;;;;5.76;76.78;94082.47;4174001;28;20114;-70
2023/12/06 06:52:08;;;;;;;20.70;13.93;;;;;;;5.74;76.63;94074.84;4177577;28;20377;-70
2023/12/06 06:54:10;;;;;;;23.17;13.82;;;;;;;5.58;77.22;94079.81;4173916;28;20049;-71
2023/12/06 06:56:12;;;;;;;14.27;10.48;;;;;;;5.63;77.98;94082.78;4177057;28;20088;-71
2023/12/06 06:58:16;;;;;;;13.23;8.18;;;;;;;5.73;78.05;94086.16;4178488;28;20059;-71
2023/12/06 07:00:19;;;;;;;12.25;8.43;;;;;;;5.81;77.31;94084.63;4173089;28;20059;-70
2023/12/06 07:02:33;;;;;;;13.73;8.80;;;;;;;5.81;77.58;94087.22;4177928;28;20098;-70
2023/12/06 07:04:35;;;;;;;15.38;10.27;;;;;;;5.88;77.43;94081.31;4175304;28;20044;-71
2023/12/06 07:06:38;;;;;;;12.18;8.52;;;;;;;5.92;77.35;94082.66;4179644;28;20052;-71
2023/12/06 07:08:40;;;;;;;15.65;10.32;;;;;;;5.92;76.46;94079.25;4179309;28;20056;-72
2023/12/06 07:10:47;;;;;;;19.33;12.02;;;;;;;5.87;76.85;94081.44;4179159;28;20132;-70
2023/12/06 07:12:49;;;;;;;12.57;8.20;;;;;;;5.91;76.72;94073.22;4177750;28;20099;-70
2023/12/06 07:14:53;;;;;;;15.90;9.77;;;;;;;5.98;76.90;94081.31;4178051;28;20573;-71
2023/12/06 07:16:57;;;;;;;16.02;10.43;;;;;;;5.96;76.73;94078.03;4202915;28;20100;-70
2023/12/06 07:18:59;;;;;;;18.98;13.00;;;;;;;5.82;76.94;94071.50;4172775;28;20049;-71
2023/12/06 07:21:03;;;;;;;24.60;14.10;;;;;;;5.86;77.40;94079.81;4162831;28;20053;-70
2023/12/06 07:23:06;;;;;;;16.10;11.05;;;;;;;5.90;77.27;94073.38;4161016;28;20053;-70
2023/12/06 07:25:08;;;;;;;11.48;8.90;;;;;;;5.95;77.12;94082.38;4177502;28;20131;-70
2023/12/06 07:27:10;;;;;;;15.93;9.43;;;;;;;5.95;76.83;94081.56;4171582;28;20045;-71
2023/12/06 07:29:12;;;;;;;13.88;8.63;;;;;;;5.84;77.33;94085.16;4173874;28;20053;-69
2023/12/06 07:31:14;;;;;;;15.27;10.90;;;;;;;5.74;77.90;94081.78;4166718;28;20088;-70
2023/12/06 07:33:16;;;;;;;15.15;10.55;;;;;;;5.67;78.03;94093.72;4167310;28;20079;-69
2023/12/06 07:35:18;;;;;;;18.13;10.65;;;;;;;5.67;78.81;94086.75;4170428;28;20045;-70
2023/12/06 07:37:20;;;;;;;15.90;11.35;;;;;;;5.66;78.41;94092.91;4163131;28;20247;-69
2023/12/06 07:39:22;;;;;;;18.35;12.38;;;;;;;5.70;78.37;94094.28;4174623;28;20484;-73
2023/12/06 07:41:25;;;;;;;18.23;11.93;;;;;;;5.81;78.43;94095.88;4176722;28;20044;-69
2023/12/06 07:43:27;;;;;;;19.92;13.95;;;;;;;5.86;78.52;94092.81;4177792;28;20096;-69
2023/12/06 07:45:29;;;;;;;15.45;10.15;;;;;;;5.97;78.01;94097.03;4179211;28;20045;-73
2023/12/06 07:47:31;;;;;;;14.52;11.07;;;;;;;6.03;77.99;94097.28;4175223;28;20458;-71
2023/12/06 07:49:32;;;;;;;16.02;11.82;;;;;;;6.09;78.18;94096.69;4176593;28;20084;-69
2023/12/06 07:51:36;;;;;;;16.83;11.98;;;;;;;6.11;77.63;94099.97;4178467;28;20086;-71
2023/12/06 07:53:38;;;;;;;17.48;11.18;;;;;;;6.11;77.74;94086.97;4176017;28;20089;-71
2023/12/06 07:55:40;;;;;;;15.55;10.55;;;;;;;6.19;77.82;94090.59;4176456;28;20041;-71
2023/12/06 07:57:42;;;;;;;14.82;11.25;;;;;;;6.27;77.20;94090.69;4176194;28;20076;-71
2023/12/06 07:59:47;;;;;;;21.48;13.32;;;;;;;6.28;77.16;94081.91;4177636;28;20045;-70
2023/12/06 08:01:49;;;;;;;18.17;13.02;;;;;;;6.26;77.55;94089.88;4176924;28;20045;-68
2023/12/06 08:03:51;;;;;;;15.65;12.93;;;;;;;6.27;77.50;94088.91;4175021;28;20428;-70
2023/12/06 08:05:54;;;;;;;16.52;12.70;;;;;;;6.25;77.26;94095.22;4177299;28;20137;-70
2023/12/06 08:07:56;;;;;;;17.35;12.52;;;;;;;6.14;77.59;94091.84;4176615;28;20103;-72
2023/12/06 08:09:58;;;;;;;15.10;12.38;;;;;;;6.06;78.05;94075.34;4177834;28;20045;-71
2023/12/06 08:12:00;;;;;;;18.15;12.25;;;;;;;6.01;78.66;94085.38;4164162;28;20053;-71
2023/12/06 08:14:02;;;;;;;20.35;12.90;;;;;;;5.90;78.94;94076.78;4176907;28;20067;-70
2023/12/06 08:16:04;;;;;;;14.73;10.82;;;;;;;5.97;79.09;94087.44;4178530;28;20045;-71
2023/12/06 08:18:07;;;;;;;13.95;10.38;;;;;;;5.94;79.08;94085.97;4167463;28;20045;-69
2023/12/06 08:20:10;;;;;;;14.10;10.63;;;;;;;5.90;79.45;94083.78;4163073;28;20416;-69
2023/12/06 08:22:12;;;;;;;11.30;9.93;;;;;;;5.84;79.48;94076.56;4173629;28;20863;-72
2023/12/06 08:24:13;;;;;;;15.38;10.73;;;;;;;5.92;79.83;94081.84;4170769;28;20048;-70
2023/12/06 08:26:16;;;;;;;18.17;12.73;;;;;;;5.86;79.73;94082.44;4166882;28;20081;-70
2023/12/06 08:28:18;;;;;;;14.02;9.93;;;;;;;5.90;79.45;94081.19;4191220;28;20475;-70
2023/12/06 08:30:20;;;;;;;16.33;10.40;;;;;;;5.95;79.41;94089.38;4176410;28;20072;-70
2023/12/06 08:32:22;;;;;;;15.52;9.55;;;;;;;6.00;79.87;94089.78;4177764;28;20053;-70
2023/12/06 08:34:27;;;;;;;14.43;9.75;;;;;;;6.04;79.12;94093.69;4167240;28;20234;-70
2023/12/06 08:36:29;;;;;;;;;;;;;;;6.06;79.58;94090.94;4162267;28;20192;-70
2023/12/06 08:38:31;;;;;;;15.80;10.05;;;;;;;6.07;79.49;94092.59;4169604;28;19921;-68
2023/12/06 08:40:33;;;;;;;16.90;11.25;;;;;;;5.89;79.31;94088.16;4178682;28;20057;-70
2023/12/06 08:42:35;;;;;;;13.57;10.05;;;;;;;5.90;79.47;94089.78;4173237;28;20132;-70
2023/12/06 08:44:37;;;;;;;14.85;9.77;;;;;;;5.89;79.84;94092.53;4175404;28;20446;-71
2023/12/06 08:46:39;;;;;;;14.48;9.73;;;;;;;5.91;79.43;94080.19;4173721;28;20045;-70
2023/12/06 08:48:41;;;;;;;9.95;8.60;;;;;;;5.93;79.76;94083.47;4169988;28;20049;-70
2023/12/06 08:50:43;;;;;;;11.80;9.57;;;;;;;5.98;79.82;94075.25;4175792;28;20087;-71
2023/12/06 08:52:45;;;;;;;10.30;8.38;;;;;;;5.94;79.39;94078.16;4169943;28;20404;-71
2023/12/06 08:54:47;;;;;;;16.15;9.50;;;;;;;5.97;79.79;94084.03;4180683;28;20084;-70
2023/12/06 08:56:49;;;;;;;11.98;8.70;;;;;;;5.92;79.78;94076.66;4180577;28;20060;-71
2023/12/06 08:58:51;;;;;;;13.65;9.20;;;;;;;5.85;80.59;94080.78;4179074;28;20048;-71
2023/12/06 09:00:53;;;;;;;14.65;9.38;;;;;;;5.98;80.31;94075.25;4180709;28;20057;-71
2023/12/06 09:02:55;;;;;;;13.85;9.45;;;;;;;6.08;80.00;94068.22;4180879;28;20122;-70
2023/12/06 09:04:57;;;;;;;15.25;9.63;;;;;;;6.11;79.83;94071.34;4176128;28;20164;-72
2023/12/06 09:06:59;;;;;;;11.82;9.10;;;;;;;6.12;79.55;94061.75;4176383;28;20056;-69
2023/12/06 09:09:04;;;;;;;11.13;8.65;;;;;;;6.02;80.03;94067.00;4177244;28;20054;-69
2023/12/06 09:11:07;;;;;;;14.05;9.75;;;;;;;5.94;79.26;94062.56;4181403;28;20084;-69
2023/12/06 09:13:09;;;;;;;14.45;8.80;;;;;;;5.89;79.65;94056.13;4175608;28;20056;-70
2023/12/06 09:15:11;;;;;;;11.48;9.43;;;;;;;5.94;80.25;94059.97;4176922;28;20037;-69
2023/12/06 09:17:13;;;;;;;12.30;9.23;;;;;;;5.92;80.34;94059.25;4178900;28;20132;-70
2023/12/06 09:19:17;;;;;;;14.65;10.23;;;;;;;6.09;80.13;94051.66;4178934;28;20132;-70
2023/12/06 09:21:19;;;;;;;12.63;9.15;;;;;;;6.07;79.74;94049.22;4179875;28;20063;-70
2023/12/06 09:23:21;;;;;;;15.63;9.25;;;;;;;6.11;80.06;94047.94;4165933;28;20136;-70
2023/12/06 09:25:23;;;;;;;12.18;8.88;;;;;;;6.18;80.22;94045.56;4170560;28;20088;-71
2023/12/06 09:27:27;;;;;;;11.73;8.93;;;;;;;6.08;79.26;94043.03;4173051;28;20053;-72
2023/12/06 09:29:29;;;;;;;12.30;8.70;;;;;;;6.04;79.77;94036.47;4166817;28;20079;-71
2023/12/06 09:31:34;;;;;;;11.35;8.60;;;;;;;6.01;79.54;94036.78;4177537;28;20461;-71
2023/12/06 09:33:36;;;;;;;10.57;8.13;;;;;;;5.91;79.40;94036.00;4163801;28;20478;-72
2023/12/06 09:35:40;;;;;;;10.77;9.05;;;;;;;5.95;79.91;94032.19;4164936;28;20503;-70